Monday, December 18, 2017, 11:41 AM EST
Back to Local

KCXY, Harrisburg Capital City

Location: New Cumberland, PA, United States Lat: 40.217
Local Time: 11:41 AM EST (16:41 GMT) Lon: -76.85
Time Zone: US/Eastern Elev: 347 ft

Show me the last for .
Show Decoded

2017-12-18 10:56 METAR KCXY 181556Z 07003KT 7SM OVC055 06/M02 A3009 RMK AO2 SLP193 T00561017 =
2017-12-18 09:56 METAR KCXY 181456Z 00000KT 6SM HZ BKN065 04/M02 A3012 RMK AO2 SLP205 T00441022
                 53001 =
2017-12-18 08:56 METAR KCXY 181356Z 00000KT 6SM HZ SCT049 OVC070 03/M02 A3011 RMK AO2 SLP202
                 T00281022 =
2017-12-18 07:56 METAR KCXY 181256Z 00000KT 6SM HZ OVC070 02/M03 A3012 RMK AO2 SLP204 T00171028 =
2017-12-18 06:56 METAR KCXY 181156Z 00000KT 8SM OVC075 02/M03 A3012 RMK AO2 SLP203 T00171028
                 10022 20017 55003 =
2017-12-18 05:56 METAR KCXY 181056Z AUTO 00000KT 8SM OVC075 02/M03 A3012 RMK AO2 SLP202 T00221028
                 =
2017-12-18 04:56 METAR KCXY 180956Z AUTO 00000KT 8SM SCT055 BKN070 OVC085 02/M03 A3011 RMK AO2
                 SLP202 T00221028 =
2017-12-18 03:56 METAR KCXY 180856Z AUTO 11004KT 9SM BKN049 OVC060 02/M03 A3013 RMK AO2 SLP207
                 T00221028 56006 =
2017-12-18 02:56 METAR KCXY 180756Z AUTO 00000KT 9SM OVC065 02/M03 A3014 RMK AO2 SLP208 T00221028
                 =
2017-12-18 01:56 METAR KCXY 180656Z AUTO 12004KT 9SM OVC070 02/M03 A3014 RMK AO2 SLP209 T00221028
                 =
2017-12-18 00:56 METAR KCXY 180556Z AUTO 10003KT 8SM OVC075 02/M03 A3015 RMK AO2 SLP213 T00221028
                 10033 20022 56006 =
2017-12-17 23:56 METAR KCXY 180456Z AUTO 00000KT 8SM OVC080 03/M02 A3015 RMK AO2 SLP216 T00281022
                 400611039 =
2017-12-17 22:56 METAR KCXY 180356Z AUTO 00000KT 8SM BKN055 OVC090 03/M02 A3015 RMK AO2 SLP214
                 T00281022 =
2017-12-17 21:56 METAR KCXY 180256Z AUTO 00000KT 8SM OVC055 03/M02 A3017 RMK AO2 SLP219 T00281022
                 58013 =
2017-12-17 20:56 METAR KCXY 180156Z 10004KT 8SM FEW045 OVC055 03/M02 A3018 RMK AO2 SLP226
                 T00281022 =
2017-12-17 19:56 METAR KCXY 180056Z 11003KT 8SM OVC055 03/M02 A3020 RMK AO2 SLP230 T00331022 =
2017-12-17 18:56 METAR KCXY 172356Z 09003KT 8SM BKN110 03/M02 A3020 RMK AO2 SLP233 T00331022
                 10061 20028 50006 =
2017-12-17 17:56 METAR KCXY 172256Z 10003KT 9SM CLR 03/M02 A3022 RMK AO2 SLP237 T00331022 =
2017-12-17 16:56 METAR KCXY 172156Z 07003KT 10SM CLR 04/M02 A3019 RMK AO2 SLP229 T00441022 =
2017-12-17 15:56 METAR KCXY 172056Z 11004KT 9SM CLR 05/M02 A3018 RMK AO2 SLP226 T00501022 55013 =
2017-12-17 14:56 METAR KCXY 171956Z 00000KT 8SM CLR 06/M03 A3018 RMK AO2 SLP223 T00611028 =
2017-12-17 13:56 METAR KCXY 171856Z 04003KT 9SM CLR 06/M03 A3020 RMK AO2 SLP231 T00561028 =
2017-12-17 12:56 METAR KCXY 171756Z 00000KT 9SM CLR 03/M03 A3022 RMK AO2 SLP239 T00331033 10033
                 21033 58013 =
2017-12-17 11:56 METAR KCXY 171656Z 00000KT 8SM CLR 03/M03 A3026 RMK AO2 SLP252 T00281033 =

Support USWX by starting your Amazon purchase here.